createdAt,value
2022-11-06T00:01:34.012Z,92.33
2022-11-06T00:04:01.101Z,103.40
2022-11-06T00:06:46.822Z,102.27
2022-11-06T00:09:15.072Z,109.70
2022-11-06T00:11:42.373Z,113.93
2022-11-06T00:14:09.813Z,113.77
2022-11-06T00:16:40.917Z,106.43
2022-11-06T00:19:08.186Z,100.90
2022-11-06T00:21:35.818Z,95.50
2022-11-06T00:24:04.986Z,90.47
2022-11-06T00:26:33.130Z,86.20
2022-11-06T00:29:00.208Z,91.30
2022-11-06T00:31:30.683Z,86.93
2022-11-06T00:33:59.767Z,75.30
2022-11-06T00:36:30.446Z,80.87
2022-11-06T00:38:58.615Z,73.33
2022-11-06T00:41:26.005Z,81.50
2022-11-06T00:43:58.423Z,77.40
2022-11-06T00:46:25.889Z,74.33
2022-11-06T00:48:53.716Z,67.37
2022-11-06T00:51:46.715Z,67.10
2022-11-06T00:54:13.937Z,75.87
2022-11-06T00:56:40.934Z,70.43
2022-11-06T00:59:10.960Z,72.37
2022-11-06T01:01:40.128Z,87.57
2022-11-06T01:04:18.859Z,80.37
2022-11-06T01:06:47.868Z,77.77
2022-11-06T01:09:18.727Z,77.50
2022-11-06T01:14:35.026Z,66.00
2022-11-06T01:17:01.797Z,61.03
2022-11-06T01:19:28.517Z,63.67
2022-11-06T01:21:55.421Z,63.20
2022-11-06T01:24:25.105Z,60.07
2022-11-06T01:27:24.346Z,52.83
2022-11-06T01:29:39.329Z,57.00
2022-11-06T01:32:06.879Z,51.00
2022-11-06T01:34:33.556Z,57.53
2022-11-06T01:37:00.243Z,58.87
2022-11-06T01:39:27.136Z,64.40
2022-11-06T01:41:54.525Z,65.73
2022-11-06T01:44:33.342Z,83.30
2022-11-06T01:47:01.741Z,114.27
2022-11-06T01:49:32.732Z,106.43
2022-11-06T01:52:03.040Z,107.40
2022-11-06T01:54:31.088Z,82.07
2022-11-06T01:57:00.126Z,78.20
2022-11-06T01:59:28.897Z,70.47
2022-11-06T02:01:55.851Z,72.00
2022-11-06T02:04:29.321Z,66.57
2022-11-06T02:06:56.909Z,76.80
2022-11-06T02:09:25.469Z,79.43
2022-11-06T02:12:05.275Z,70.30
2022-11-06T02:14:43.296Z,63.93
2022-11-06T02:17:32.957Z,78.23
2022-11-06T02:20:18.477Z,93.90
2022-11-06T02:22:45.177Z,75.00
2022-11-06T02:25:32.674Z,69.30
2022-11-06T02:28:11.475Z,52.43
2022-11-06T02:30:44.237Z,45.90
2022-11-06T02:33:16.576Z,50.03
2022-11-06T02:36:05.947Z,50.13
2022-11-06T02:38:37.310Z,47.00
2022-11-06T02:41:08.838Z,44.93
2022-11-06T02:43:43.646Z,45.30
2022-11-06T02:46:15.295Z,44.50
2022-11-06T02:48:47.527Z,46.77
2022-11-06T02:51:18.853Z,48.07
2022-11-06T02:53:47.825Z,44.97
2022-11-06T02:56:27.149Z,39.93
2022-11-06T02:59:09.730Z,39.10
2022-11-06T03:02:03.012Z,37.83
2022-11-06T03:04:53.784Z,40.70
2022-11-06T03:07:32.847Z,43.17
2022-11-06T03:09:59.605Z,36.17
2022-11-06T03:12:29.338Z,30.13
2022-11-06T03:15:19.537Z,31.60
2022-11-06T03:18:18.185Z,39.20
2022-11-06T03:21:06.840Z,29.83
2022-11-06T03:23:57.001Z,28.33
2022-11-06T03:26:35.914Z,25.93
2022-11-06T03:29:25.884Z,23.03
2022-11-06T03:32:08.239Z,36.30
2022-11-06T03:35:07.253Z,25.87
2022-11-06T03:37:40.895Z,26.20
2022-11-06T03:40:12.234Z,24.67
2022-11-06T03:42:41.217Z,26.10
2022-11-06T03:45:13.517Z,18.20
2022-11-06T03:47:44.750Z,18.27
2022-11-06T03:50:34.031Z,21.27
2022-11-06T03:53:12.174Z,25.90
2022-11-06T03:55:48.981Z,20.70
2022-11-06T03:58:21.659Z,21.23
2022-11-06T04:00:51.246Z,19.90
2022-11-06T04:03:32.732Z,22.03
2022-11-06T04:06:08.379Z,21.27
2022-11-06T04:08:54.375Z,22.43
2022-11-06T04:11:43.571Z,20.20
2022-11-06T04:14:11.412Z,21.97
2022-11-06T04:16:41.229Z,20.60
2022-11-06T04:19:21.940Z,18.60
2022-11-06T04:22:17.447Z,22.00
2022-11-06T04:25:19.121Z,20.47
2022-11-06T04:27:53.267Z,23.17
2022-11-06T04:30:20.099Z,22.43
2022-11-06T04:33:11.321Z,33.60
2022-11-06T04:35:54.531Z,24.57
2022-11-06T04:38:29.167Z,20.37
2022-11-06T04:41:25.005Z,21.63
2022-11-06T04:44:00.932Z,17.60
2022-11-06T04:46:36.907Z,22.50
2022-11-06T04:49:06.167Z,19.30
2022-11-06T04:51:38.884Z,20.23
2022-11-06T04:54:09.052Z,22.13
2022-11-06T04:56:40.120Z,32.00
2022-11-06T04:59:15.975Z,25.67
2022-11-06T05:01:43.348Z,22.77
2022-11-06T05:04:11.421Z,26.57
2022-11-06T05:06:38.186Z,32.83
2022-11-06T05:09:04.941Z,27.57
2022-11-06T05:11:31.934Z,28.23
2022-11-06T05:13:58.616Z,36.60
2022-11-06T05:16:25.347Z,48.20
2022-11-06T05:18:52.109Z,40.17
2022-11-06T05:21:37.527Z,31.80
2022-11-06T05:24:04.715Z,26.20
2022-11-06T05:26:31.380Z,21.50
2022-11-06T05:28:58.123Z,19.73
2022-11-06T05:31:26.081Z,24.73
2022-11-06T05:33:52.792Z,28.50
2022-11-06T05:36:19.592Z,28.33
2022-11-06T05:38:46.264Z,28.00
2022-11-06T05:41:12.983Z,23.37
2022-11-06T05:43:39.904Z,28.70
2022-11-06T05:46:14.999Z,32.20
2022-11-06T05:48:50.911Z,39.47
2022-11-06T05:51:17.894Z,33.77
2022-11-06T05:53:44.574Z,36.57
2022-11-06T05:56:11.397Z,36.27
2022-11-06T05:58:38.071Z,56.07
2022-11-06T06:01:05.349Z,36.03
2022-11-06T06:03:32.480Z,35.67
2022-11-06T06:05:59.225Z,34.83
2022-11-06T06:08:26.001Z,27.57
2022-11-06T06:10:52.714Z,30.40
2022-11-06T06:13:19.503Z,29.53
2022-11-06T06:15:46.473Z,40.83
2022-11-06T06:18:13.710Z,35.67
2022-11-06T06:20:40.742Z,30.27
2022-11-06T06:23:09.586Z,50.07
2022-11-06T06:25:36.512Z,31.10
2022-11-06T06:28:03.397Z,31.73
2022-11-06T06:30:30.139Z,37.77
2022-11-06T06:32:56.842Z,67.57
2022-11-06T06:35:23.575Z,64.93
2022-11-06T06:37:56.171Z,63.10
2022-11-06T06:40:23.352Z,80.57
2022-11-06T06:42:50.120Z,54.53
2022-11-06T06:45:17.133Z,41.10
2022-11-06T06:47:43.865Z,44.33
2022-11-06T06:50:11.054Z,55.93
2022-11-06T06:52:37.840Z,54.97
2022-11-06T06:55:05.393Z,40.93
2022-11-06T06:57:32.538Z,37.63
2022-11-06T06:59:59.242Z,32.47
2022-11-06T07:02:26.020Z,33.80
2022-11-06T07:04:52.748Z,34.77
2022-11-06T07:07:19.453Z,34.10
2022-11-06T07:09:46.370Z,32.33
2022-11-06T07:12:13.092Z,31.10
2022-11-06T07:14:39.781Z,34.43
2022-11-06T07:17:06.478Z,35.40
2022-11-06T07:19:33.227Z,34.07
2022-11-06T07:21:59.914Z,31.27
2022-11-06T07:24:30.032Z,32.47
2022-11-06T07:26:56.716Z,35.67
2022-11-06T07:29:23.385Z,32.03
2022-11-06T07:31:50.625Z,27.93
2022-11-06T07:34:17.405Z,31.23
2022-11-06T07:36:44.067Z,32.30
2022-11-06T07:39:11.708Z,33.23
2022-11-06T07:41:38.606Z,35.20
2022-11-06T07:44:05.626Z,33.50
2022-11-06T07:46:32.583Z,33.50
2022-11-06T07:48:59.315Z,34.20
2022-11-06T07:51:26.612Z,32.10
2022-11-06T07:53:53.525Z,32.70
2022-11-06T07:56:20.222Z,36.13
2022-11-06T07:58:46.934Z,32.50
2022-11-06T08:01:19.075Z,27.63
2022-11-06T08:03:46.187Z,36.33
2022-11-06T08:06:13.164Z,32.70
2022-11-06T08:08:39.925Z,33.10
2022-11-06T08:11:12.175Z,30.13
2022-11-06T08:13:42.217Z,34.07
2022-11-06T08:16:12.014Z,32.77
2022-11-06T08:18:39.407Z,32.13
2022-11-06T08:21:07.660Z,30.07
2022-11-06T08:23:37.842Z,34.83
2022-11-06T08:26:06.537Z,40.73
2022-11-06T08:28:33.413Z,28.77
2022-11-06T08:31:04.623Z,30.67
2022-11-06T08:33:31.628Z,27.80
2022-11-06T08:36:02.720Z,30.67
2022-11-06T08:38:29.482Z,30.67
2022-11-06T08:40:56.201Z,27.80
2022-11-06T08:43:27.416Z,28.43
2022-11-06T08:45:56.824Z,32.73
2022-11-06T08:48:23.541Z,28.80
2022-11-06T08:50:50.562Z,30.57
2022-11-06T08:53:20.079Z,27.33
2022-11-06T08:55:46.960Z,27.87
2022-11-06T08:58:14.205Z,30.57
2022-11-06T09:00:41.173Z,25.80
2022-11-06T09:03:14.090Z,24.33
2022-11-06T09:05:42.524Z,23.07
2022-11-06T09:08:10.694Z,28.10
2022-11-06T09:10:41.936Z,27.40
2022-11-06T09:13:09.121Z,33.03
2022-11-06T09:15:36.933Z,24.27
2022-11-06T09:18:03.794Z,24.47
2022-11-06T09:20:30.553Z,29.57
2022-11-06T09:23:02.147Z,31.20
2022-11-06T09:25:29.692Z,20.67
2022-11-06T09:27:59.451Z,22.70
2022-11-06T09:30:29.191Z,19.37
2022-11-06T09:33:01.981Z,24.43
2022-11-06T09:35:30.997Z,20.67
2022-11-06T09:38:11.234Z,19.83
2022-11-06T09:41:16.734Z,24.53
2022-11-06T09:44:11.060Z,24.50
2022-11-06T09:46:42.575Z,23.93
2022-11-06T09:49:44.229Z,21.17
2022-11-06T09:52:22.712Z,24.00
2022-11-06T09:54:57.146Z,21.93
2022-11-06T09:57:33.962Z,29.97
2022-11-06T10:00:03.234Z,26.60
2022-11-06T10:02:47.219Z,19.90
2022-11-06T10:05:23.972Z,21.90
2022-11-06T10:07:53.801Z,22.30
2022-11-06T10:10:30.297Z,20.93
2022-11-06T10:13:51.974Z,24.40
2022-11-06T10:16:49.295Z,18.87
2022-11-06T10:19:37.104Z,20.30
2022-11-06T10:22:17.193Z,19.63
2022-11-06T10:24:49.926Z,14.03
2022-11-06T10:27:19.022Z,16.33
2022-11-06T10:30:15.039Z,20.20
2022-11-06T10:32:57.101Z,15.80
2022-11-06T10:35:38.516Z,16.37
2022-11-06T10:38:24.891Z,17.27
2022-11-06T10:40:54.027Z,16.53
2022-11-06T10:43:26.864Z,15.17
2022-11-06T10:46:20.930Z,18.70
2022-11-06T10:48:52.942Z,17.07
2022-11-06T10:59:23.292Z,15.50
2022-11-06T11:35:51.416Z,13.97
2022-11-06T11:38:19.130Z,15.00
2022-11-06T11:40:46.096Z,16.30
2022-11-06T11:43:32.951Z,21.53
2022-11-06T11:46:13.204Z,19.43
2022-11-06T11:48:50.177Z,20.20
2022-11-06T11:51:23.415Z,19.57
2022-11-06T11:53:51.658Z,22.70
2022-11-06T11:56:42.500Z,18.37
2022-11-06T11:59:38.602Z,14.90
2022-11-06T12:02:27.224Z,15.53
2022-11-06T12:05:06.138Z,16.03
2022-11-06T12:07:38.847Z,18.10
2022-11-06T12:10:36.441Z,17.40
2022-11-06T12:13:16.684Z,17.57
2022-11-06T12:15:53.310Z,16.10
2022-11-06T12:18:24.921Z,13.73
2022-11-06T12:21:08.553Z,20.17
2022-11-06T12:23:41.282Z,18.20
2022-11-06T12:26:35.871Z,17.43
2022-11-06T12:29:25.359Z,13.73
2022-11-06T12:32:03.842Z,13.97
2022-11-06T12:34:45.261Z,13.40
2022-11-06T12:37:21.093Z,12.03
2022-11-06T12:39:56.631Z,12.23
2022-11-06T12:42:28.324Z,13.40
2022-11-06T12:44:55.004Z,12.13
2022-11-06T12:47:41.101Z,12.20
2022-11-06T12:50:46.781Z,12.17
2022-11-06T12:53:26.412Z,13.70
2022-11-06T12:56:12.859Z,14.17
2022-11-06T12:58:58.259Z,13.27
2022-11-06T13:01:53.458Z,11.70
2022-11-06T13:04:44.981Z,14.27
2022-11-06T13:07:39.535Z,9.33
2022-11-06T14:08:42.089Z,14.93
2022-11-06T14:11:20.302Z,19.63
2022-11-06T14:14:02.367Z,17.70
2022-11-06T14:16:35.128Z,19.90
2022-11-06T14:19:11.504Z,16.20
2022-11-06T14:21:51.623Z,33.50
2022-11-06T14:24:30.550Z,44.33
2022-11-06T14:26:58.286Z,25.73
2022-11-06T14:29:28.185Z,18.77
2022-11-06T14:32:23.823Z,21.47
2022-11-06T14:34:51.283Z,16.50
2022-11-06T14:37:19.522Z,16.07
2022-11-06T14:39:55.683Z,15.20
2022-11-06T14:42:43.121Z,15.37
2022-11-06T14:45:15.854Z,14.13
2022-11-06T14:47:56.871Z,16.23
2022-11-06T14:50:25.801Z,21.07
2022-11-06T14:53:06.273Z,24.10
2022-11-06T14:55:37.268Z,19.80
2022-11-06T14:58:28.959Z,26.27
2022-11-06T15:01:11.200Z,20.97
2022-11-06T15:03:52.596Z,21.60
2022-11-06T15:06:19.906Z,21.03
2022-11-06T15:08:46.895Z,32.47
2022-11-06T15:11:47.715Z,38.37
2022-11-06T15:14:14.828Z,33.70
2022-11-06T15:16:55.499Z,33.17
2022-11-06T15:19:23.775Z,29.47
2022-11-06T15:22:16.293Z,32.10
2022-11-06T15:24:49.537Z,54.57
2022-11-06T15:27:21.440Z,52.13
2022-11-06T15:29:53.149Z,53.47
2022-11-06T15:32:24.684Z,46.67
2022-11-06T15:35:06.295Z,47.00
2022-11-06T15:37:40.439Z,40.17
2022-11-06T15:40:22.099Z,42.73
2022-11-06T15:42:49.958Z,42.53
2022-11-06T15:45:17.738Z,43.57
2022-11-06T15:47:59.444Z,45.70
2022-11-06T15:50:32.468Z,48.07
2022-11-06T15:53:15.377Z,44.53
2022-11-06T15:55:50.254Z,50.13
2022-11-06T15:58:23.120Z,55.27
2022-11-06T16:00:52.683Z,53.57
2022-11-06T16:03:22.549Z,89.33
2022-11-06T16:05:50.415Z,125.73
2022-11-06T16:08:19.457Z,125.53
2022-11-06T16:10:50.622Z,99.50
2022-11-06T16:13:20.765Z,76.10
2022-11-06T16:16:01.921Z,69.97
2022-11-06T16:18:42.416Z,56.53
2022-11-06T16:21:12.465Z,60.30
2022-11-06T16:23:45.860Z,65.97
2022-11-06T16:26:27.305Z,50.43
2022-11-06T16:28:56.453Z,50.93
2022-11-06T16:31:27.348Z,45.57
2022-11-06T16:33:59.470Z,41.50
2022-11-06T16:36:28.199Z,47.93
2022-11-06T16:39:15.482Z,60.33
2022-11-06T16:42:03.631Z,87.77
2022-11-06T16:44:37.330Z,91.00
2022-11-06T16:47:13.537Z,93.13
2022-11-06T16:50:27.023Z,95.50
2022-11-06T16:52:54.578Z,102.07
2022-11-06T16:55:25.877Z,93.47
2022-11-06T16:57:56.683Z,114.37
2022-11-06T17:00:31.088Z,105.43
2022-11-06T17:02:58.411Z,107.40
2022-11-06T17:05:32.277Z,102.13
2022-11-06T17:08:20.546Z,108.27
2022-11-06T17:10:48.935Z,115.63
2022-11-06T17:13:31.347Z,95.37
2022-11-06T17:16:01.183Z,93.60
2022-11-06T17:18:41.772Z,103.50
2022-11-06T17:21:13.184Z,98.00
2022-11-06T17:23:40.206Z,84.93
2022-11-06T17:26:14.425Z,64.57
2022-11-06T17:28:41.260Z,57.40
2022-11-06T17:31:13.004Z,57.53
2022-11-06T17:33:40.976Z,53.97
2022-11-06T17:36:14.985Z,48.93
2022-11-06T17:38:41.685Z,54.27
2022-11-06T17:41:08.447Z,69.47
2022-11-06T17:43:35.287Z,69.20
2022-11-06T17:46:02.557Z,80.57
2022-11-06T17:48:29.352Z,106.73
2022-11-06T17:51:15.140Z,112.83
2022-11-06T17:53:44.851Z,121.40
2022-11-06T17:56:11.621Z,109.73
2022-11-06T17:58:38.479Z,103.50
2022-11-06T18:01:10.810Z,90.00
2022-11-06T18:03:44.369Z,68.83
2022-11-06T18:06:12.949Z,70.23
2022-11-06T18:08:39.782Z,77.03
2022-11-06T18:11:08.099Z,95.90
2022-11-06T18:13:35.807Z,98.53
2022-11-06T18:16:03.050Z,95.97
2022-11-06T18:18:30.054Z,104.93
2022-11-06T18:20:56.919Z,87.83
2022-11-06T18:23:23.776Z,84.40
2022-11-06T18:25:57.755Z,77.97
2022-11-06T18:28:25.436Z,72.53
2022-11-06T18:30:52.829Z,69.90
2022-11-06T18:33:20.506Z,74.10
2022-11-06T18:35:47.621Z,69.63
2022-11-06T18:38:15.467Z,79.20
2022-11-06T18:40:47.450Z,75.10
2022-11-06T18:43:18.897Z,76.27
2022-11-06T18:45:45.619Z,67.13
2022-11-06T18:48:15.792Z,71.67
2022-11-06T18:50:45.646Z,66.27
2022-11-06T18:53:15.278Z,49.30
2022-11-06T18:55:46.091Z,48.13
2022-11-06T18:58:13.530Z,47.57
2022-11-06T19:00:40.497Z,48.23
2022-11-06T19:03:07.226Z,59.07
2022-11-06T19:05:34.403Z,49.57
2022-11-06T19:08:02.667Z,48.67
2022-11-06T19:10:31.268Z,49.33
2022-11-06T19:12:59.550Z,47.27
2022-11-06T19:15:26.786Z,48.07
2022-11-06T19:17:54.793Z,41.40
2022-11-06T19:20:22.815Z,41.07
2022-11-06T19:22:51.376Z,40.73
2022-11-06T19:25:18.761Z,47.67
2022-11-06T19:27:45.861Z,43.97
2022-11-06T19:30:13.346Z,44.63
2022-11-06T19:32:40.179Z,46.17
2022-11-06T19:35:07.753Z,45.17
2022-11-06T19:37:36.119Z,46.53
2022-11-06T19:40:06.160Z,46.40
2022-11-06T19:42:34.104Z,46.07
2022-11-06T19:45:01.516Z,42.53
2022-11-06T19:47:28.356Z,44.77
2022-11-06T19:49:55.106Z,39.23
2022-11-06T19:52:42.505Z,39.27
2022-11-06T19:55:25.906Z,40.83
2022-11-06T19:57:57.080Z,45.13
2022-11-06T20:00:23.834Z,42.57
2022-11-06T20:02:50.989Z,40.93
2022-11-06T20:05:18.282Z,39.80
2022-11-06T20:07:45.006Z,42.80
2022-11-06T20:10:11.760Z,52.80
2022-11-06T20:12:38.488Z,48.03
2022-11-06T20:15:05.669Z,44.13
2022-11-06T20:17:32.401Z,39.00
2022-11-06T20:19:59.221Z,47.07
2022-11-06T20:22:25.922Z,42.77
2022-11-06T20:24:52.794Z,37.33
2022-11-06T20:27:19.544Z,43.00
2022-11-06T20:29:46.230Z,38.87
2022-11-06T20:32:18.585Z,44.17
2022-11-06T20:34:46.146Z,47.77
2022-11-06T20:37:13.107Z,56.47
2022-11-06T20:39:41.737Z,64.03
2022-11-06T20:42:08.702Z,63.47
2022-11-06T20:44:35.503Z,62.60
2022-11-06T20:47:02.254Z,54.20
2022-11-06T20:49:29.230Z,49.27
2022-11-06T20:52:13.332Z,47.93
2022-11-06T20:54:46.326Z,47.47
2022-11-06T20:57:15.596Z,47.87
2022-11-06T20:59:42.626Z,46.47
2022-11-06T21:02:11.370Z,57.73
2022-11-06T21:04:38.322Z,53.67
2022-11-06T21:07:05.476Z,63.80
2022-11-06T21:09:32.438Z,61.73
2022-11-06T21:11:59.132Z,65.33
2022-11-06T21:14:25.935Z,70.27
2022-11-06T21:16:54.143Z,66.20
2022-11-06T21:19:20.957Z,49.47
2022-11-06T21:21:47.710Z,48.03
2022-11-06T21:24:14.520Z,40.40
2022-11-06T21:26:41.335Z,42.53
2022-11-06T21:29:10.789Z,37.33
2022-11-06T21:31:43.999Z,35.93
2022-11-06T21:34:15.310Z,37.13
2022-11-06T21:36:45.813Z,30.73
2022-11-06T21:39:17.512Z,35.03
2022-11-06T21:41:44.874Z,33.93
2022-11-06T21:44:17.180Z,32.50
2022-11-06T21:46:45.697Z,34.17
2022-11-06T21:49:13.653Z,31.03
2022-11-06T21:51:40.628Z,33.87
2022-11-06T21:54:25.971Z,35.23
2022-11-06T21:56:53.514Z,32.73
2022-11-06T21:59:25.703Z,35.63
2022-11-06T22:01:52.926Z,36.90
2022-11-06T22:04:20.487Z,41.47
2022-11-06T22:06:47.264Z,38.93
2022-11-06T22:09:14.738Z,38.83
2022-11-06T22:11:44.755Z,46.37
2022-11-06T22:14:14.103Z,38.97
2022-11-06T22:16:43.136Z,36.80
2022-11-06T22:19:11.144Z,40.60
2022-11-06T22:21:42.639Z,41.60
2022-11-06T22:24:12.060Z,42.73
2022-11-06T22:26:39.709Z,37.40
2022-11-06T22:29:09.257Z,43.60
2022-11-06T22:31:36.339Z,43.67
2022-11-06T22:34:03.115Z,43.17
2022-11-06T22:36:30.004Z,43.23
2022-11-06T22:38:58.964Z,43.87
2022-11-06T22:41:26.110Z,43.40
2022-11-06T22:43:57.358Z,40.67
2022-11-06T22:46:24.225Z,41.47
2022-11-06T22:48:52.337Z,37.83
2022-11-06T22:51:22.943Z,44.50
2022-11-06T22:53:50.509Z,37.53
2022-11-06T22:56:18.815Z,39.43
2022-11-06T22:58:46.089Z,42.63
2022-11-06T23:01:13.457Z,40.60
2022-11-06T23:03:40.869Z,37.07
2022-11-06T23:06:09.686Z,39.27
2022-11-06T23:08:44.161Z,33.47
2022-11-06T23:11:15.886Z,35.03
2022-11-06T23:13:43.895Z,38.37
2022-11-06T23:16:17.844Z,45.10
2022-11-06T23:18:45.084Z,41.97
2022-11-06T23:21:18.941Z,35.70
2022-11-06T23:23:46.110Z,41.37
2022-11-06T23:26:16.457Z,37.60
2022-11-06T23:28:44.279Z,38.60
2022-11-06T23:31:13.592Z,40.70
2022-11-06T23:33:40.870Z,38.10
2022-11-06T23:36:09.148Z,39.40
2022-11-06T23:38:35.993Z,37.20
2022-11-06T23:41:29.495Z,43.67
2022-11-06T23:43:57.669Z,39.33
2022-11-06T23:46:27.596Z,39.60
2022-11-06T23:48:54.433Z,42.87
2022-11-06T23:51:22.258Z,44.37
2022-11-06T23:53:49.176Z,40.03
2022-11-06T23:56:16.704Z,38.57
2022-11-06T23:58:43.638Z,40.07
